Time;durP1;ratioP1;P1;durP2;ratioP2;P2;SDS_P1;SDS_P2;PMS_P1;PMS_P2;Temp;Humidity;BMP_temperature;BMP_pressure;BME280_temperature;BME280_humidity;BME280_pressure;Samples;Min_cycle;Max_cycle;Signal;HPM_P1;HPM_P2
2022/01/09 00:01:30;;;;;;;66.95;30.15;;;;;;;7.16;100.00;100532.91;4880118;29;20028;-67
2022/01/09 00:04:16;;;;;;;56.25;29.40;;;;;;;7.00;100.00;100531.28;4880686;29;20032;-68
2022/01/09 00:07:02;;;;;;;55.65;27.88;;;;;;;7.12;100.00;100526.84;4879491;29;20374;-68
2022/01/09 00:09:47;;;;;;;71.38;31.80;;;;;;;7.28;100.00;100530.22;4879981;29;20025;-67
2022/01/09 00:12:34;;;;;;;58.38;29.90;;;;;;;7.02;100.00;100527.78;4879407;29;20035;-68
2022/01/09 00:15:20;;;;;;;87.80;33.47;;;;;;;6.84;100.00;100529.63;4880162;29;20049;-67
2022/01/09 00:18:06;;;;;;;94.53;31.20;;;;;;;6.77;100.00;100525.31;4881228;29;20116;-67
2022/01/09 00:20:51;;;;;;;52.78;28.33;;;;;;;7.03;100.00;100524.31;4886069;29;20043;-69
2022/01/09 00:23:37;;;;;;;59.38;28.08;;;;;;;6.74;100.00;100528.81;4886721;29;20036;-68
2022/01/09 00:26:23;;;;;;;65.78;29.63;;;;;;;6.72;100.00;100527.97;4886376;29;20071;-67
2022/01/09 00:29:10;;;;;;;63.53;30.23;;;;;;;6.47;100.00;100531.53;4886945;29;20045;-67
2022/01/09 00:31:55;;;;;;;54.97;28.52;;;;;;;6.55;100.00;100541.94;4885649;29;20029;-67
2022/01/09 00:34:41;;;;;;;69.05;30.23;;;;;;;6.84;100.00;100525.31;4886134;29;20387;-68
2022/01/09 00:37:27;;;;;;;72.82;29.85;;;;;;;6.72;100.00;100527.09;4885415;29;20459;-67
2022/01/09 00:44:11;;;;;;;55.28;28.30;;;;;;;6.59;100.00;100517.63;4886484;29;20061;-68
2022/01/09 00:47:00;;;;;;;66.82;31.48;;;;;;;6.82;100.00;100519.22;4886324;29;20443;-68
2022/01/09 00:49:46;;;;;;;60.03;29.67;;;;;;;6.89;100.00;100520.06;4885981;29;20044;-68
2022/01/09 00:52:31;;;;;;;66.15;31.30;;;;;;;6.74;100.00;100508.00;4886271;29;20028;-70
2022/01/09 00:55:29;;;;;;;60.63;29.48;;;;;;;7.13;100.00;100506.88;4885882;29;20427;-68
2022/01/09 00:58:15;;;;;;;68.25;30.98;;;;;;;7.08;100.00;100511.25;4885580;29;20490;-67
2022/01/09 01:01:01;;;;;;;76.80;32.42;;;;;;;6.78;100.00;100503.63;4885622;29;20045;-67
2022/01/09 01:03:46;;;;;;;63.85;29.35;;;;;;;6.95;100.00;100496.59;4886066;29;20120;-68
2022/01/09 01:06:32;;;;;;;61.53;29.23;;;;;;;6.90;100.00;100490.53;4885769;29;20040;-67
2022/01/09 01:09:20;;;;;;;67.25;30.60;;;;;;;6.75;100.00;100480.22;4885977;29;20025;-68
2022/01/09 01:12:07;;;;;;;86.38;31.52;;;;;;;6.45;100.00;100493.38;4885515;29;20029;-67
2022/01/09 01:14:53;;;;;;;58.20;27.85;;;;;;;6.95;100.00;100491.38;4885781;29;20041;-67
2022/01/09 01:17:39;;;;;;;107.50;32.40;;;;;;;6.65;100.00;100483.75;4885520;29;20117;-68
2022/01/09 01:20:29;;;;;;;85.53;32.20;;;;;;;6.79;100.00;100479.34;4885180;29;20039;-69
2022/01/09 01:23:15;;;;;;;66.43;29.92;;;;;;;6.84;100.00;100475.84;4885453;29;20447;-68
2022/01/09 01:26:02;;;;;;;62.95;29.17;;;;;;;6.74;100.00;100474.16;4885620;29;20083;-68
2022/01/09 01:28:47;;;;;;;62.25;28.30;;;;;;;6.66;100.00;100475.94;4885438;29;20083;-68
2022/01/09 01:31:33;;;;;;;61.33;27.20;;;;;;;6.75;100.00;100467.22;4882728;29;20121;-68
2022/01/09 01:34:22;;;;;;;60.13;26.98;;;;;;;6.80;100.00;100468.03;4883185;29;20021;-68
2022/01/09 01:37:08;;;;;;;74.88;27.95;;;;;;;6.63;100.00;100459.47;4881840;29;20060;-68
2022/01/09 01:39:53;;;;;;;68.78;26.92;;;;;;;6.68;100.00;100453.38;4882495;29;20060;-68
2022/01/09 01:42:40;;;;;;;63.30;26.73;;;;;;;6.47;100.00;100452.63;4882144;29;20473;-67
2022/01/09 01:45:26;;;;;;;64.68;26.67;;;;;;;6.80;100.00;100442.88;4882316;29;20092;-68
2022/01/09 01:48:12;;;;;;;52.28;24.65;;;;;;;6.34;100.00;100441.41;4881784;29;20029;-67
2022/01/09 01:50:58;;;;;;;61.88;25.73;;;;;;;6.56;100.00;100443.03;4882964;29;20358;-68
2022/01/09 01:53:59;;;;;;;55.72;25.25;;;;;;;7.01;100.00;100428.81;4882057;29;20025;-68
2022/01/09 01:56:45;;;;;;;60.55;25.58;;;;;;;6.89;100.00;100426.31;4881792;29;20068;-68
2022/01/09 01:59:31;;;;;;;60.42;24.20;;;;;;;6.76;100.00;100409.06;4882270;29;20033;-68
2022/01/09 02:02:16;;;;;;;68.82;25.73;;;;;;;6.65;100.00;100410.88;4882755;29;20129;-68
2022/01/09 02:05:06;;;;;;;71.47;27.15;;;;;;;6.52;100.00;100404.88;4882286;29;20033;-68
2022/01/09 02:07:52;;;;;;;68.55;27.65;;;;;;;6.13;100.00;100394.69;4881392;29;20033;-68
2022/01/09 02:10:41;;;;;;;60.40;26.30;;;;;;;6.38;100.00;100380.69;4882625;29;20029;-68
2022/01/09 02:13:27;;;;;;;71.78;28.48;;;;;;;6.40;100.00;100386.75;4882417;29;20487;-68
2022/01/09 02:16:17;;;;;;;63.47;27.33;;;;;;;6.25;100.00;100381.63;4881806;29;20080;-67
2022/01/09 02:19:04;;;;;;;78.40;29.67;;;;;;;6.35;100.00;100387.66;4882464;29;20088;-68
2022/01/09 02:21:50;;;;;;;62.70;27.48;;;;;;;6.35;100.00;100379.84;4882477;29;20103;-67
2022/01/09 02:24:35;;;;;;;58.97;27.13;;;;;;;6.67;100.00;100378.72;4881226;29;20084;-68
2022/01/09 02:27:21;;;;;;;60.70;27.60;;;;;;;6.70;100.00;100367.44;4881211;29;20113;-68
2022/01/09 02:30:08;;;;;;;56.47;26.02;;;;;;;6.79;100.00;100357.81;4881420;29;20119;-67
2022/01/09 02:32:54;;;;;;;61.13;27.92;;;;;;;6.86;100.00;100356.91;4881122;29;20105;-68
2022/01/09 02:35:40;;;;;;;68.80;28.48;;;;;;;6.97;100.00;100355.06;4881460;29;20489;-68
2022/01/09 02:38:26;;;;;;;72.18;29.83;;;;;;;6.72;100.00;100352.69;4881630;29;20133;-68
2022/01/09 02:41:11;;;;;;;70.60;30.42;;;;;;;6.89;100.00;100356.00;4881490;29;20037;-69
2022/01/09 02:43:57;;;;;;;59.45;26.48;;;;;;;7.00;100.00;100351.59;4867167;29;20025;-69
2022/01/09 02:46:56;;;;;;;58.35;26.70;;;;;;;6.90;100.00;100347.31;4881079;29;20491;-69
2022/01/09 02:49:49;;;;;;;55.67;25.90;;;;;;;7.24;100.00;100349.59;4880681;29;20103;-69
2022/01/09 02:52:47;;;;;;;55.25;25.92;;;;;;;7.06;100.00;100334.16;4868370;29;20039;-69
2022/01/09 02:55:33;;;;;;;48.60;23.77;;;;;;;7.16;100.00;100329.72;4881044;29;20033;-69
2022/01/09 02:58:19;;;;;;;52.13;25.15;;;;;;;7.15;100.00;100322.78;4881101;29;20029;-69
2022/01/09 03:01:07;;;;;;;47.13;24.55;;;;;;;7.00;100.00;100321.22;4868028;29;20043;-68
2022/01/09 03:03:53;;;;;;;56.47;24.08;;;;;;;6.69;100.00;100339.69;4867696;29;20124;-68
2022/01/09 03:06:39;;;;;;;55.42;25.92;;;;;;;6.84;100.00;100334.38;4880862;29;20029;-68
2022/01/09 03:09:25;;;;;;;54.20;25.25;;;;;;;6.91;100.00;100323.03;4880527;29;20119;-69
2022/01/09 03:12:11;;;;;;;63.63;26.30;;;;;;;6.90;100.00;100318.66;4868004;29;20029;-69
2022/01/09 03:14:57;;;;;;;55.95;24.33;;;;;;;7.10;100.00;100322.81;4881414;29;20043;-68
2022/01/09 03:17:44;;;;;;;55.83;24.58;;;;;;;7.06;100.00;100325.47;4881663;29;20083;-68
2022/01/09 03:20:33;;;;;;;51.50;24.02;;;;;;;7.18;100.00;100321.00;4881744;29;20138;-68
2022/01/09 03:23:19;;;;;;;51.55;24.13;;;;;;;7.05;100.00;100315.94;4881413;29;20400;-68
2022/01/09 03:26:08;;;;;;;52.70;21.90;;;;;;;6.41;100.00;100317.34;4880215;29;20115;-68
2022/01/09 03:28:54;;;;;;;60.88;23.67;;;;;;;6.44;100.00;100318.22;4867414;29;20396;-69
2022/01/09 03:31:40;;;;;;;68.57;24.73;;;;;;;6.20;100.00;100313.16;4880546;29;20370;-69
2022/01/09 03:34:26;;;;;;;83.13;25.92;;;;;;;6.47;100.00;100312.97;4880295;29;20040;-69
2022/01/09 03:37:12;;;;;;;71.78;25.25;;;;;;;6.65;100.00;100311.94;4880317;29;20481;-70
2022/01/09 03:39:57;;;;;;;53.72;23.27;;;;;;;6.45;100.00;100311.25;4880431;29;20104;-69
2022/01/09 03:42:43;;;;;;;59.75;22.55;;;;;;;6.06;100.00;100325.38;4880952;29;20036;-70
2022/01/09 03:45:30;;;;;;;58.30;23.92;;;;;;;6.35;100.00;100322.59;4880742;29;20040;-69
2022/01/09 03:48:15;;;;;;;51.25;22.50;;;;;;;6.10;100.00;100311.47;4880340;29;20119;-68
2022/01/09 03:51:02;;;;;;;55.50;23.52;;;;;;;6.33;100.00;100320.00;4880042;29;20044;-69
2022/01/09 03:53:48;;;;;;;61.83;25.35;;;;;;;6.39;100.00;100309.53;4879220;29;20033;-69
2022/01/09 03:56:34;;;;;;;56.63;24.45;;;;;;;6.40;100.00;100313.03;4880251;29;20045;-68
2022/01/09 03:59:20;;;;;;;59.72;24.70;;;;;;;6.81;100.00;100309.22;4881092;29;20029;-68
2022/01/09 04:02:06;;;;;;;58.33;25.33;;;;;;;6.85;100.00;100310.03;4880455;29;20438;-69
2022/01/09 04:04:51;;;;;;;45.78;22.20;;;;;;;6.59;100.00;100312.88;4880685;29;20036;-68
2022/01/09 04:07:38;;;;;;;50.92;23.13;;;;;;;6.72;100.00;100311.03;4880078;29;20029;-70
2022/01/09 04:10:28;;;;;;;45.50;21.50;;;;;;;6.61;100.00;100312.84;4868473;29;20032;-69
2022/01/09 04:13:14;;;;;;;44.40;21.70;;;;;;;6.67;100.00;100316.28;4879521;29;20025;-68
2022/01/09 04:16:00;;;;;;;41.55;21.23;;;;;;;6.61;100.00;100318.94;4880643;29;20067;-69
2022/01/09 04:18:46;;;;;;;47.42;22.40;;;;;;;6.59;100.00;100309.41;4867412;29;20064;-68
2022/01/09 04:21:33;;;;;;;48.78;23.27;;;;;;;6.04;100.00;100308.06;4866930;29;20033;-68
2022/01/09 04:24:20;;;;;;;42.40;20.63;;;;;;;6.40;100.00;100313.03;4879402;29;20465;-70
2022/01/09 04:27:06;;;;;;;40.92;21.55;;;;;;;6.62;100.00;100317.19;4879877;29;20076;-67
2022/01/09 04:29:52;;;;;;;41.88;21.05;;;;;;;6.59;100.00;100322.44;4879588;29;20048;-68
2022/01/09 04:32:38;;;;;;;40.67;20.25;;;;;;;6.37;100.00;100326.03;4880001;29;20021;-70
2022/01/09 04:35:24;;;;;;;48.00;22.17;;;;;;;6.75;100.00;100324.03;4880446;29;20033;-69
2022/01/09 04:38:10;;;;;;;38.65;19.95;;;;;;;6.29;100.00;100331.31;4880241;29;20439;-69
2022/01/09 04:40:56;;;;;;;40.22;20.85;;;;;;;6.25;100.00;100336.53;4880523;29;20371;-69
2022/01/09 04:43:44;;;;;;;47.30;19.98;;;;;;;6.28;100.00;100336.53;4879629;29;20077;-69
2022/01/09 04:46:40;;;;;;;42.47;20.20;;;;;;;6.43;100.00;100334.66;4879167;29;20029;-69
2022/01/09 04:49:31;;;;;;;39.28;20.45;;;;;;;6.12;100.00;100334.88;4879676;29;20028;-69
2022/01/09 04:52:21;;;;;;;35.90;19.00;;;;;;;6.19;100.00;100336.59;4879325;29;20085;-68
2022/01/09 04:55:10;;;;;;;34.05;18.42;;;;;;;6.49;100.00;100342.44;4866793;29;20135;-69
2022/01/09 04:57:56;;;;;;;36.58;19.10;;;;;;;6.38;100.00;100341.66;4880341;29;20026;-69
2022/01/09 05:00:43;;;;;;;35.22;17.92;;;;;;;6.41;100.00;100336.44;4879737;29;20029;-68
2022/01/09 05:03:28;;;;;;;41.53;19.35;;;;;;;6.09;100.00;100335.78;4879105;29;20036;-69
2022/01/09 05:06:14;;;;;;;44.22;20.58;;;;;;;6.49;100.00;100326.84;4882646;29;20435;-69
2022/01/09 05:09:00;;;;;;;36.67;18.35;;;;;;;6.57;100.00;100339.78;4883510;29;20041;-68
2022/01/09 05:11:46;;;;;;;36.55;18.33;;;;;;;6.50;100.00;100338.97;4883303;29;20033;-68
2022/01/09 05:14:31;;;;;;;38.17;18.48;;;;;;;6.47;100.00;100338.13;4883433;29;20025;-68
2022/01/09 05:17:17;;;;;;;35.28;18.02;;;;;;;6.34;100.00;100341.69;4882693;29;20057;-69
2022/01/09 05:20:03;;;;;;;36.88;17.38;;;;;;;6.06;100.00;100334.94;4883405;29;20430;-68
2022/01/09 05:22:49;;;;;;;36.08;17.75;;;;;;;6.00;100.00;100345.34;4883688;29;20025;-68
2022/01/09 05:25:36;;;;;;;34.10;17.15;;;;;;;6.17;100.00;100343.50;4870121;29;20040;-68
2022/01/09 05:28:22;;;;;;;35.33;17.10;;;;;;;6.25;100.00;100339.13;4882244;29;20056;-68
2022/01/09 05:31:07;;;;;;;31.17;16.48;;;;;;;6.07;100.00;100347.06;4869408;29;20075;-67
2022/01/09 05:33:53;;;;;;;35.83;17.75;;;;;;;6.16;100.00;100334.00;4882615;29;20025;-69
2022/01/09 05:36:39;;;;;;;39.20;19.02;;;;;;;6.11;100.00;100340.97;4883113;29;20122;-68
2022/01/09 05:39:25;;;;;;;35.90;17.85;;;;;;;6.11;100.00;100335.75;4883641;29;20048;-69
2022/01/09 05:42:13;;;;;;;38.58;18.95;;;;;;;5.99;100.00;100323.69;4869211;29;20036;-68
2022/01/09 05:44:58;;;;;;;38.00;19.35;;;;;;;6.02;100.00;100328.03;4883080;29;20037;-68
2022/01/09 05:47:45;;;;;;;41.00;19.85;;;;;;;5.95;100.00;100332.38;4882850;29;20469;-69
2022/01/09 05:50:32;;;;;;;42.65;19.75;;;;;;;5.98;100.00;100323.72;4882332;29;20061;-68
2022/01/09 05:53:18;;;;;;;37.70;19.27;;;;;;;6.13;100.00;100315.81;4868954;29;20085;-68
2022/01/09 05:56:04;;;;;;;37.40;18.70;;;;;;;6.19;100.00;100319.22;4882220;29;20037;-68
2022/01/09 05:58:50;;;;;;;33.60;17.40;;;;;;;5.91;100.00;100309.84;4883225;29;20029;-69
2022/01/09 06:01:36;;;;;;;39.05;19.02;;;;;;;6.17;100.00;100318.38;4868581;29;20140;-68
2022/01/09 06:04:21;;;;;;;35.50;19.17;;;;;;;6.12;100.00;100314.06;4882726;29;20355;-68
2022/01/09 06:07:07;;;;;;;37.13;17.75;;;;;;;6.04;100.00;100318.47;4881381;29;20037;-68
2022/01/09 06:09:53;;;;;;;35.55;18.52;;;;;;;6.08;100.00;100328.84;4869039;29;20029;-68
2022/01/09 06:12:39;;;;;;;36.15;17.88;;;;;;;6.13;100.00;100315.81;4881508;29;20374;-68
2022/01/09 06:15:25;;;;;;;36.63;17.75;;;;;;;6.23;100.00;100328.72;4881494;29;20052;-69
2022/01/09 06:18:12;;;;;;;40.03;17.63;;;;;;;6.29;100.00;100331.31;4881424;29;20498;-68
2022/01/09 06:20:58;;;;;;;37.42;17.95;;;;;;;6.33;100.00;100333.03;4881778;29;20029;-69
2022/01/09 06:23:44;;;;;;;33.60;16.60;;;;;;;6.30;100.00;100330.44;4881370;29;20029;-70
2022/01/09 06:26:29;;;;;;;34.08;17.77;;;;;;;6.12;100.00;100334.88;4882408;29;20029;-70
2022/01/09 06:29:15;;;;;;;30.33;16.35;;;;;;;6.29;100.00;100330.44;4882905;29;20188;-70
2022/01/09 06:32:01;;;;;;;30.17;17.33;;;;;;;6.26;100.00;100325.28;4867987;29;20029;-69
2022/01/09 06:34:47;;;;;;;32.38;16.02;;;;;;;6.11;100.00;100333.16;4882016;29;20048;-70
2022/01/09 06:37:33;;;;;;;31.42;16.25;;;;;;;6.11;100.00;100331.41;4868273;29;20100;-70
2022/01/09 06:40:19;;;;;;;30.42;16.02;;;;;;;6.20;100.00;100328.78;4882630;29;20041;-69
2022/01/09 06:43:05;;;;;;;28.65;15.88;;;;;;;6.03;100.00;100324.53;4880968;29;20511;-68
2022/01/09 06:45:51;;;;;;;33.58;16.25;;;;;;;6.32;100.00;100327.81;4881446;29;20417;-69
2022/01/09 06:48:36;;;;;;;31.85;15.05;;;;;;;6.18;100.00;100317.50;4882222;29;20040;-70
2022/01/09 06:51:22;;;;;;;30.38;16.15;;;;;;;6.11;100.00;100321.00;4881949;29;20033;-69
2022/01/09 06:54:08;;;;;;;36.67;18.35;;;;;;;6.36;100.00;100319.13;4867978;29;20053;-70
2022/01/09 06:56:54;;;;;;;32.55;17.02;;;;;;;6.26;100.00;100322.69;4881726;29;20033;-71
2022/01/09 06:59:39;;;;;;;35.22;16.20;;;;;;;6.18;100.00;100322.69;4881077;29;20040;-69
2022/01/09 07:02:25;;;;;;;36.10;17.33;;;;;;;6.25;100.00;100319.19;4880683;29;20044;-69
2022/01/09 07:10:16;;;;;;;36.25;18.00;;;;;;;6.37;100.00;100308.72;4935395;23;20057;-70
2022/01/09 07:13:03;;;;;;;43.10;19.60;;;;;;;6.56;100.00;100314.63;4900901;29;20064;-69
2022/01/09 07:15:48;;;;;;;38.30;18.80;;;;;;;6.30;100.00;100322.63;4895193;29;20037;-70
2022/01/09 07:18:34;;;;;;;40.58;19.58;;;;;;;6.57;100.00;100318.97;4881223;29;20109;-70
2022/01/09 07:21:20;;;;;;;39.42;19.30;;;;;;;6.74;100.00;100314.47;4880967;29;20468;-69
2022/01/09 07:24:06;;;;;;;40.58;20.45;;;;;;;6.79;100.00;100317.94;4881356;29;20033;-70
2022/01/09 07:26:51;;;;;;;38.60;18.92;;;;;;;6.55;100.00;100315.53;4881364;29;20372;-69
2022/01/09 07:35:54;;;;;;;50.45;23.38;;;;;;;6.56;100.00;100306.84;5892410;23;20022;-69
2022/01/09 07:38:40;;;;;;;41.45;20.10;;;;;;;6.31;100.00;100302.69;4880636;29;20033;-69
2022/01/09 07:41:26;;;;;;;39.63;20.45;;;;;;;6.77;100.00;100293.63;4881560;29;20463;-70
2022/01/09 07:44:12;;;;;;;41.17;21.02;;;;;;;7.05;100.00;100287.28;4867751;29;20116;-69
2022/01/09 07:46:57;;;;;;;41.20;21.13;;;;;;;6.46;100.00;100287.81;4866842;29;20447;-70
2022/01/09 07:49:43;;;;;;;47.13;22.80;;;;;;;6.32;100.00;100287.06;4862347;29;20366;-69
2022/01/09 07:52:29;;;;;;;42.70;22.38;;;;;;;6.86;100.00;100281.41;4849264;29;20030;-69
2022/01/09 07:55:15;;;;;;;45.03;24.08;;;;;;;6.48;100.00;100280.00;4861140;29;20145;-72
2022/01/09 07:58:01;;;;;;;43.33;24.23;;;;;;;6.51;100.00;100287.78;4862419;29;20034;-72
2022/01/09 08:00:47;;;;;;;45.92;25.33;;;;;;;6.50;100.00;100280.84;4862266;29;20029;-71
2022/01/09 08:03:34;;;;;;;42.25;24.65;;;;;;;6.56;100.00;100265.19;4862587;29;20037;-71
2022/01/09 08:06:20;;;;;;;41.65;24.38;;;;;;;6.43;100.00;100269.63;4860877;29;20037;-70
2022/01/09 08:09:05;;;;;;;48.03;24.38;;;;;;;6.88;100.00;100255.34;4862297;29;20048;-72
2022/01/09 08:15:33;;;;;;;37.20;21.90;;;;;;;7.21;100.00;100247.16;4862699;29;20044;-71
2022/01/09 08:18:19;;;;;;;44.60;25.75;;;;;;;7.34;100.00;100257.44;4861736;29;20112;-71
2022/01/09 08:21:05;;;;;;;37.25;23.02;;;;;;;7.71;100.00;100253.47;4849314;29;20030;-71
2022/01/09 08:23:51;;;;;;;36.47;21.52;;;;;;;7.64;100.00;100259.66;4862044;29;20075;-72
2022/01/09 08:26:36;;;;;;;34.97;21.00;;;;;;;7.01;100.00;100257.81;4862049;29;20092;-71
2022/01/09 08:29:22;;;;;;;28.20;17.80;;;;;;;7.05;100.00;100269.06;4862414;29;20065;-72
2022/01/09 08:32:10;;;;;;;26.60;17.05;;;;;;;7.21;100.00;100261.06;4861696;29;20576;-72
2022/01/09 08:34:55;;;;;;;30.52;19.05;;;;;;;7.71;100.00;100268.25;4862136;29;20435;-72
2022/01/09 08:37:42;;;;;;;27.67;16.33;;;;;;;7.74;100.00;100271.69;4861557;29;20125;-71
2022/01/09 08:40:28;;;;;;;24.73;16.17;;;;;;;7.79;100.00;100269.88;4864731;29;20033;-71
2022/01/09 08:43:13;;;;;;;23.48;14.98;;;;;;;7.51;100.00;100268.50;4864732;29;20341;-71
2022/01/09 08:45:59;;;;;;;24.48;14.90;;;;;;;7.40;100.00;100270.38;4865167;29;20360;-71
2022/01/09 08:48:45;;;;;;;25.77;15.38;;;;;;;7.64;100.00;100266.63;4865584;29;20041;-73
2022/01/09 08:51:32;;;;;;;25.80;16.23;;;;;;;7.46;100.00;100264.22;4866146;29;20040;-73
2022/01/09 08:54:17;;;;;;;25.55;15.80;;;;;;;7.65;100.00;100260.53;4865589;29;20482;-73
2022/01/09 08:57:04;;;;;;;27.05;15.80;;;;;;;7.02;100.00;100256.06;4864428;29;20040;-72
2022/01/09 08:59:49;;;;;;;26.95;15.90;;;;;;;7.50;100.00;100255.50;4864936;29;20030;-72
2022/01/09 09:02:35;;;;;;;26.50;16.35;;;;;;;7.31;100.00;100256.63;4864782;29;20377;-73
2022/01/09 09:05:21;;;;;;;29.75;16.98;;;;;;;7.32;100.00;100256.56;4865690;29;20037;-73
2022/01/09 09:11:49;;;;;;;27.50;17.63;;;;;;;7.36;100.00;100258.25;4865156;29;20131;-73
2022/01/09 09:14:35;;;;;;;32.90;18.15;;;;;;;7.41;100.00;100248.66;4865008;29;20462;-72
2022/01/09 09:17:21;;;;;;;28.75;17.70;;;;;;;7.08;100.00;100246.44;4865011;29;20559;-73
2022/01/09 09:20:07;;;;;;;32.25;18.17;;;;;;;7.53;100.00;100251.13;4865293;29;20352;-72
2022/01/09 09:22:53;;;;;;;27.45;16.88;;;;;;;7.38;100.00;100245.22;4864500;29;20064;-73
2022/01/09 09:25:39;;;;;;;30.20;18.30;;;;;;;7.26;100.00;100242.75;4865171;29;20029;-72
2022/01/09 09:28:25;;;;;;;30.77;18.80;;;;;;;7.48;100.00;100239.88;4864379;29;20375;-72
2022/01/09 09:31:11;;;;;;;29.85;17.25;;;;;;;7.39;100.00;100237.38;4865881;29;20033;-72
2022/01/09 09:33:56;;;;;;;29.85;17.63;;;;;;;7.20;100.00;100224.59;4864872;29;20026;-73
2022/01/09 09:36:42;;;;;;;33.05;18.13;;;;;;;7.16;100.00;100217.72;4864575;29;20061;-73
2022/01/09 09:39:28;;;;;;;31.98;18.23;;;;;;;7.17;100.00;100214.22;4865042;29;20108;-72
2022/01/09 09:42:18;;;;;;;35.03;16.95;;;;;;;7.36;100.00;100211.34;4864842;29;20064;-73
2022/01/09 09:45:09;;;;;;;36.33;18.05;;;;;;;7.26;100.00;100204.56;4864800;29;20029;-73
2022/01/09 09:47:55;;;;;;;28.40;15.48;;;;;;;7.69;100.00;100204.84;4865396;29;20467;-74
2022/01/09 09:50:41;;;;;;;27.50;15.70;;;;;;;7.23;100.00;100201.97;4863802;29;20356;-72
2022/01/09 09:53:27;;;;;;;26.05;15.65;;;;;;;7.29;100.00;100209.75;4864221;29;20043;-73
2022/01/09 09:56:13;;;;;;;33.13;17.30;;;;;;;7.20;100.00;100191.59;4863672;29;20040;-72
2022/01/09 09:59:02;;;;;;;34.35;17.48;;;;;;;7.55;100.00;100201.59;4865526;29;20477;-74
2022/01/09 10:01:49;;;;;;;29.00;17.23;;;;;;;7.68;100.00;100197.91;4864649;29;20044;-72
2022/01/09 10:04:35;;;;;;;29.50;15.75;;;;;;;7.72;100.00;100192.63;4864505;29;20033;-72
2022/01/09 10:07:23;;;;;;;26.42;15.15;;;;;;;7.22;100.00;100194.19;4863913;29;20025;-73
2022/01/09 10:10:42;;;;;;;24.80;14.82;;;;;;;7.41;100.00;100190.47;4864097;29;20033;-72
2022/01/09 10:13:28;;;;;;;26.90;15.30;;;;;;;7.43;100.00;100183.50;4850290;29;20473;-72
2022/01/09 10:16:15;;;;;;;25.63;15.00;;;;;;;6.87;100.00;100180.72;4864390;29;20033;-73
2022/01/09 10:19:01;;;;;;;24.45;14.75;;;;;;;7.08;100.00;100177.88;4863627;29;20037;-72
2022/01/09 10:21:48;;;;;;;25.35;15.00;;;;;;;7.09;100.00;100171.78;4864800;29;20074;-72
2022/01/09 10:24:34;;;;;;;24.33;14.30;;;;;;;7.45;100.00;100169.56;4864449;29;20048;-72
2022/01/09 10:27:35;;;;;;;23.65;13.68;;;;;;;7.48;100.00;100173.88;4864675;29;20026;-72
2022/01/09 10:30:23;;;;;;;21.98;13.88;;;;;;;7.79;100.00;100168.19;4864332;29;20455;-75
2022/01/09 10:33:12;;;;;;;21.73;13.60;;;;;;;8.25;100.00;100170.97;4864027;29;20037;-72
2022/01/09 10:35:58;;;;;;;19.38;12.65;;;;;;;7.97;100.00;100167.91;4863206;29;20116;-72
2022/01/09 10:38:45;;;;;;;18.83;12.02;;;;;;;8.22;100.00;100161.44;4864726;29;20037;-75
2022/01/09 10:41:59;;;;;;;20.15;12.32;;;;;;;7.65;100.00;100166.69;4864091;29;20056;-72
2022/01/09 10:44:45;;;;;;;17.55;11.23;;;;;;;7.90;100.00;100168.91;4863792;29;20040;-71
2022/01/09 10:47:37;;;;;;;16.65;11.00;;;;;;;8.11;100.00;100171.16;4863657;29;20129;-73
2022/01/09 10:50:31;;;;;;;13.35;9.73;;;;;;;7.75;100.00;100165.63;4863855;29;20033;-75
2022/01/09 10:53:24;;;;;;;15.02;10.55;;;;;;;8.04;100.00;100164.31;4862938;29;20389;-71
2022/01/09 10:56:17;;;;;;;15.00;9.45;;;;;;;8.11;100.00;100167.66;4863660;29;20351;-72
2022/01/09 10:59:02;;;;;;;16.67;10.50;;;;;;;7.66;100.00;100173.59;4864579;29;20098;-72
2022/01/09 11:01:48;;;;;;;16.35;10.02;;;;;;;7.42;100.00;100174.81;4863905;29;20033;-72
2022/01/09 11:04:34;;;;;;;14.95;10.32;;;;;;;7.56;100.00;100170.25;4863991;29;20037;-72
2022/01/09 11:07:21;;;;;;;14.70;10.38;;;;;;;8.05;100.00;100167.78;4862721;29;20065;-71
2022/01/09 11:10:08;;;;;;;13.45;9.45;;;;;;;7.73;100.00;100167.41;4863356;29;20033;-72
2022/01/09 11:12:59;;;;;;;13.90;9.25;;;;;;;7.98;100.00;100161.81;4863979;29;20026;-72
2022/01/09 11:18:57;;;;;;;12.43;8.93;;;;;;;7.98;100.00;100145.28;4863043;29;20030;-72
2022/01/09 11:22:06;;;;;;;12.35;8.15;;;;;;;8.09;100.00;100144.25;4850136;29;20124;-71
2022/01/09 11:25:11;;;;;;;11.02;8.32;;;;;;;7.94;100.00;100141.00;4863951;29;20037;-72
2022/01/09 11:28:06;;;;;;;12.50;8.90;;;;;;;8.07;100.00;100140.78;4863247;29;20041;-71
2022/01/09 11:31:10;;;;;;;16.45;9.65;;;;;;;7.85;100.00;100135.94;4861992;29;20141;-74
2022/01/09 11:34:34;;;;;;;12.05;8.65;;;;;;;7.90;100.00;100129.78;4863924;29;20459;-72
2022/01/09 11:37:25;;;;;;;11.68;8.40;;;;;;;7.69;100.00;100139.69;4841269;29;20391;-72
2022/01/09 11:40:33;;;;;;;12.70;8.27;;;;;;;7.95;100.00;100125.34;4863567;29;20025;-72
2022/01/09 11:43:20;;;;;;;11.35;8.05;;;;;;;8.13;100.00;100117.22;4862366;29;20108;-73
2022/01/09 11:46:06;;;;;;;10.00;7.88;;;;;;;7.97;100.00;100109.66;4848927;29;20048;-72
2022/01/09 11:48:52;;;;;;;10.60;7.60;;;;;;;8.05;100.00;100119.09;4863210;29;20037;-71
2022/01/09 11:51:49;;;;;;;11.13;8.18;;;;;;;7.94;100.00;100117.53;4862629;29;20053;-72
2022/01/09 11:54:54;;;;;;;11.07;7.85;;;;;;;7.51;100.00;100117.34;4862767;29;20044;-72
2022/01/09 11:57:46;;;;;;;10.77;8.02;;;;;;;7.87;100.00;100105.47;4862470;29;20029;-72
2022/01/09 12:00:38;;;;;;;10.77;8.15;;;;;;;7.87;100.00;100102.88;4862906;29;20375;-70
2022/01/09 12:03:27;;;;;;;13.40;9.15;;;;;;;7.96;100.00;100110.56;4862832;29;20374;-72
2022/01/09 12:06:16;;;;;;;13.52;9.43;;;;;;;7.72;100.00;100101.38;4861964;29;20044;-73
2022/01/09 12:09:02;;;;;;;13.65;9.68;;;;;;;7.55;100.00;100110.38;4862798;29;20089;-71
2022/01/09 12:12:05;;;;;;;14.30;9.18;;;;;;;7.96;100.00;100087.94;4862427;29;20359;-71
2022/01/09 12:17:48;;;;;;;15.18;10.13;;;;;;;8.36;100.00;100088.97;4861911;29;20029;-72
2022/01/09 12:20:43;;;;;;;13.80;9.88;;;;;;;8.02;100.00;100095.66;4861260;29;20075;-72
2022/01/09 12:23:28;;;;;;;13.80;9.80;;;;;;;7.79;100.00;100095.19;4862683;29;20036;-72
2022/01/09 12:26:26;;;;;;;15.35;10.48;;;;;;;8.45;100.00;100093.19;4861806;29;20037;-72
2022/01/09 12:29:44;;;;;;;18.65;10.68;;;;;;;8.04;100.00;100091.28;4863329;29;20041;-71
2022/01/09 12:32:43;;;;;;;17.50;11.10;;;;;;;8.40;100.00;100079.38;4848472;29;20368;-71
2022/01/09 12:38:04;;;;;;;15.27;10.50;;;;;;;8.33;100.00;100080.34;5090410;23;20056;-71
2022/01/09 12:41:04;;;;;;;15.85;10.70;;;;;;;7.83;100.00;100083.81;4898867;29;20036;-71
2022/01/09 12:43:57;;;;;;;14.00;9.93;;;;;;;7.90;100.00;100081.97;4884998;29;20036;-71
2022/01/09 12:46:45;;;;;;;16.83;11.48;;;;;;;7.98;100.00;100072.25;4886923;29;20102;-72
2022/01/09 12:49:31;;;;;;;15.63;10.60;;;;;;;8.11;100.00;100066.81;4879734;29;20072;-72
2022/01/09 12:52:23;;;;;;;14.55;10.93;;;;;;;8.03;100.00;100070.41;4880335;29;20450;-72
2022/01/09 12:55:12;;;;;;;15.80;11.93;;;;;;;8.52;100.00;100084.34;4879679;29;20113;-72
2022/01/09 12:57:58;;;;;;;15.85;11.48;;;;;;;8.16;100.00;100085.00;4880595;29;20029;-72
2022/01/09 13:00:44;;;;;;;16.90;12.20;;;;;;;8.20;100.00;100086.66;4879452;29;20044;-72
2022/01/09 13:03:33;;;;;;;16.25;11.15;;;;;;;7.87;100.00;100077.66;4880350;29;20044;-72
2022/01/09 13:06:25;;;;;;;15.50;11.35;;;;;;;7.80;100.00;100083.00;4880168;29;20061;-72
2022/01/09 13:09:15;;;;;;;18.00;11.40;;;;;;;7.93;100.00;100084.53;4879899;29;20040;-71
2022/01/09 13:12:03;;;;;;;16.95;11.98;;;;;;;8.29;100.00;100084.78;4880454;29;20048;-71
2022/01/09 13:14:49;;;;;;;33.75;23.10;;;;;;;8.08;100.00;100081.66;4880804;29;20076;-71